Terminal Aerodrome Forecast
Issued by NWS Wilmington, OH

Home | Current Version | Previous Version | Text Only | Print | Product List | Glossary On
Versions: 1 2 3 4 5 6 7 8 9 10 11 12 13 14 15 16 17 18 19 20 21 22 23 24 25 26 27 28 29 30
000
FTUS41 KILN 230500
TAFCVG
TAF
KCVG 230531Z 2306/2412 00000KT P6SM OVC045
     FM231500 30004KT P6SM SCT025
     FM231800 31006KT P6SM BKN040
     FM240100 04005KT P6SM VCSH BKN040=

USA.gov is the U.S. government's official web portal to all federal, state and local government web resources and services.